Time;durP1;ratioP1;P1;durP2;ratioP2;P2;SDS_P1;SDS_P2;PMS_P1;PMS_P2;Temp;Humidity;BMP_temperature;BMP_pressure;BME280_temperature;BME280_humidity;BME280_pressure;Samples;Min_cycle;Max_cycle;Signal;HPM_P1;HPM_P2
2021/01/26 00:00:35;;;;;;;16.30;4.33;;;4.90;99.90;;;;;;5042472;28;20184;-90
2021/01/26 00:03:01;;;;;;;15.43;4.97;;;4.90;99.90;;;;;;5035482;28;20172;-90
2021/01/26 00:05:27;;;;;;;12.03;4.43;;;4.90;99.90;;;;;;5035352;28;20176;-90
2021/01/26 00:07:52;;;;;;;12.37;4.53;;;4.90;99.90;;;;;;5009582;28;20292;-90
2021/01/26 00:10:18;;;;;;;16.60;4.87;;;4.80;99.90;;;;;;5017726;28;20177;-90
2021/01/26 00:12:44;;;;;;;12.53;4.27;;;4.80;99.90;;;;;;5001194;28;20181;-89
2021/01/26 00:15:10;;;;;;;17.57;4.37;;;4.80;99.90;;;;;;5017290;28;20172;-90
2021/01/26 00:17:35;;;;;;;13.47;3.70;;;4.80;99.90;;;;;;5034240;28;20177;-91
2021/01/26 00:20:02;;;;;;;20.10;4.10;;;4.80;99.90;;;;;;5037212;28;20189;-90
2021/01/26 00:22:27;;;;;;;12.17;4.13;;;4.80;99.90;;;;;;5018043;28;20703;-90
2021/01/26 00:24:53;;;;;;;8.00;3.77;;;5.00;99.90;;;;;;5017178;28;20169;-89
2021/01/26 00:27:19;;;;;;;12.17;3.83;;;5.00;99.90;;;;;;5025416;28;20168;-89
2021/01/26 00:29:44;;;;;;;20.20;3.57;;;5.00;99.90;;;;;;5036499;28;20225;-89
2021/01/26 00:32:10;;;;;;;19.20;4.53;;;5.00;99.90;;;;;;5020261;28;20172;-90
2021/01/26 00:34:36;;;;;;;16.63;3.90;;;5.00;99.90;;;;;;5048748;28;20202;-90
2021/01/26 00:37:01;;;;;;;11.30;3.73;;;5.10;99.90;;;;;;5050660;28;20168;-88
2021/01/26 00:39:27;;;;;;;22.27;3.90;;;5.10;99.90;;;;;;5029644;28;20554;-90
2021/01/26 00:41:53;;;;;;;12.80;4.13;;;5.10;99.90;;;;;;5016635;28;20191;-89
2021/01/26 00:44:18;;;;;;;25.27;5.00;;;5.20;99.90;;;;;;5016906;28;20189;-89
2021/01/26 00:46:44;;;;;;;16.17;3.63;;;5.10;99.90;;;;;;5018039;28;20188;-90
2021/01/26 00:49:10;;;;;;;17.37;4.10;;;5.10;99.90;;;;;;5020700;28;20207;-90
2021/01/26 00:51:35;;;;;;;12.47;3.77;;;5.10;99.90;;;;;;5019939;28;20179;-90
2021/01/26 00:54:01;;;;;;;10.40;3.40;;;5.10;99.90;;;;;;5036388;28;20647;-90
2021/01/26 00:56:29;;;;;;;16.40;4.40;;;5.10;99.90;;;;;;5033447;28;20172;-90
2021/01/26 00:58:55;;;;;;;15.80;3.57;;;5.10;99.90;;;;;;5016557;28;20178;-90
2021/01/26 01:01:21;;;;;;;13.37;4.13;;;5.10;99.90;;;;;;4999865;28;20173;-90
2021/01/26 01:03:48;;;;;;;12.33;4.37;;;5.00;99.90;;;;;;5015917;28;20177;-90
2021/01/26 01:06:14;;;;;;;16.23;3.80;;;5.00;99.90;;;;;;5016312;28;20562;-89
2021/01/26 01:08:40;;;;;;;21.87;5.87;;;4.90;99.90;;;;;;5016125;28;20209;-90
2021/01/26 01:11:05;;;;;;;21.97;4.37;;;4.90;99.90;;;;;;5017025;28;20181;-90
2021/01/26 01:13:31;;;;;;;21.87;4.57;;;4.80;99.90;;;;;;5020351;28;20169;-89
2021/01/26 01:15:57;;;;;;;22.80;4.13;;;4.80;99.90;;;;;;4999666;28;20277;-90
2021/01/26 01:18:22;;;;;;;15.73;4.07;;;4.70;99.90;;;;;;5015634;28;20622;-90
2021/01/26 01:20:48;;;;;;;14.67;3.20;;;4.70;99.90;;;;;;5033695;28;20698;-89
2021/01/26 01:23:14;;;;;;;11.43;3.73;;;4.60;99.90;;;;;;5035854;28;20259;-90
2021/01/26 01:25:40;;;;;;;14.73;3.33;;;4.60;99.90;;;;;;5019308;28;20836;-89
2021/01/26 01:28:05;;;;;;;14.93;4.00;;;4.60;99.90;;;;;;5016420;28;20300;-90
2021/01/26 01:30:33;;;;;;;15.97;3.27;;;4.50;99.90;;;;;;5032163;28;20211;-90
2021/01/26 01:32:59;;;;;;;9.37;3.63;;;4.60;99.90;;;;;;5032375;28;20168;-90
2021/01/26 01:35:25;;;;;;;11.80;4.23;;;4.50;99.90;;;;;;5032110;28;20177;-89
2021/01/26 01:37:51;;;;;;;16.93;4.30;;;4.40;99.90;;;;;;5018827;28;20525;-90
2021/01/26 01:40:29;;;;;;;15.27;3.90;;;4.40;99.90;;;;;;5035323;28;20250;-90
2021/01/26 01:42:55;;;;;;;18.93;4.40;;;4.50;99.90;;;;;;5035018;28;20179;-90
2021/01/26 01:45:22;;;;;;;14.87;3.73;;;4.40;99.90;;;;;;5035309;28;20168;-90
2021/01/26 01:48:04;;;;;;;14.03;3.73;;;4.30;99.90;;;;;;5034979;28;20172;-90
2021/01/26 01:50:36;;;;;;;14.20;4.03;;;4.20;99.90;;;;;;5036126;28;20192;-89
2021/01/26 01:53:09;;;;;;;8.03;3.30;;;4.10;99.90;;;;;;5036276;28;20247;-90
2021/01/26 01:55:37;;;;;;;19.23;3.73;;;4.10;99.90;;;;;;5035187;28;20179;-90
2021/01/26 01:58:09;;;;;;;12.80;3.50;;;3.90;99.90;;;;;;5034916;28;20251;-89
2021/01/26 02:00:37;;;;;;;22.33;4.13;;;3.80;99.90;;;;;;5035194;28;20168;-90
2021/01/26 02:03:25;;;;;;;21.40;3.53;;;3.90;99.90;;;;;;5034942;28;20168;-90
2021/01/26 02:05:53;;;;;;;11.20;4.07;;;3.90;99.90;;;;;;5015198;28;20165;-90
2021/01/26 02:08:31;;;;;;;12.97;3.47;;;3.90;99.90;;;;;;5014751;28;20219;-89
2021/01/26 02:10:56;;;;;;;12.47;3.77;;;3.90;99.90;;;;;;5014973;28;20172;-90
2021/01/26 02:13:22;;;;;;;16.30;4.20;;;3.80;99.90;;;;;;5015744;28;20210;-89
2021/01/26 02:15:52;;;;;;;13.10;3.30;;;3.80;99.90;;;;;;5000601;28;20614;-90
2021/01/26 02:18:40;;;;;;;10.67;3.73;;;3.80;99.90;;;;;;5034388;28;20219;-90
2021/01/26 02:21:27;;;;;;;14.50;3.27;;;3.80;99.90;;;;;;5014628;28;20188;-90
2021/01/26 02:24:08;;;;;;;11.37;4.37;;;3.70;99.90;;;;;;5014891;28;20180;-90
2021/01/26 02:27:02;;;;;;;14.37;3.53;;;3.80;99.90;;;;;;5016171;28;20203;-90
2021/01/26 02:30:02;;;;;;;13.87;3.57;;;3.70;99.90;;;;;;5029262;28;20208;-90
2021/01/26 02:32:46;;;;;;;25.70;4.53;;;3.70;99.90;;;;;;5034414;28;20191;-90
2021/01/26 02:35:31;;;;;;;15.57;3.27;;;3.80;99.90;;;;;;5035125;28;20163;-90
2021/01/26 02:38:53;;;;;;;19.57;3.60;;;3.90;99.90;;;;;;5035376;28;20250;-90
2021/01/26 02:41:30;;;;;;;18.67;3.13;;;3.90;99.90;;;;;;4958243;28;20178;-89
2021/01/26 02:44:02;;;;;;;16.23;4.13;;;4.00;99.90;;;;;;4987080;28;20224;-90
2021/01/26 02:46:36;;;;;;;11.77;3.30;;;4.00;99.90;;;;;;5026213;28;20223;-88
2021/01/26 02:49:35;;;;;;;11.83;3.20;;;4.00;99.90;;;;;;5050544;28;20270;-90
2021/01/26 02:52:07;;;;;;;21.20;3.37;;;4.00;99.90;;;;;;5014401;28;20184;-90
2021/01/26 02:55:00;;;;;;;9.40;3.30;;;4.10;99.90;;;;;;5015252;28;20172;-89
2021/01/26 02:58:03;;;;;;;10.60;3.00;;;4.10;99.90;;;;;;5014391;28;20644;-90
2021/01/26 03:00:32;;;;;;;14.03;3.60;;;4.10;99.90;;;;;;4984659;28;20192;-91
2021/01/26 03:03:04;;;;;;;12.97;3.10;;;4.10;99.90;;;;;;5033054;28;20177;-90
2021/01/26 03:05:54;;;;;;;19.50;4.57;;;4.10;99.90;;;;;;5028289;28;20169;-90
2021/01/26 03:08:29;;;;;;;13.53;3.77;;;4.10;99.90;;;;;;5032236;28;20192;-90
2021/01/26 03:11:03;;;;;;;18.33;3.60;;;4.20;99.90;;;;;;5033811;28;20180;-90
2021/01/26 03:13:32;;;;;;;14.60;3.73;;;4.20;99.90;;;;;;5034860;28;20152;-90
2021/01/26 03:16:10;;;;;;;10.53;3.00;;;4.10;99.90;;;;;;5033631;28;20573;-89
2021/01/26 03:18:49;;;;;;;8.40;3.40;;;4.10;99.90;;;;;;5033595;28;20643;-90
2021/01/26 03:21:18;;;;;;;15.67;2.67;;;4.10;99.90;;;;;;5013730;28;20185;-90
2021/01/26 03:23:49;;;;;;;15.20;3.63;;;4.20;99.90;;;;;;5013828;28;20165;-90
2021/01/26 03:26:20;;;;;;;10.37;3.60;;;4.20;99.90;;;;;;5013784;28;20169;-90
2021/01/26 03:28:50;;;;;;;12.87;3.50;;;4.20;99.90;;;;;;5013465;28;20231;-89
2021/01/26 03:31:18;;;;;;;10.77;3.63;;;4.30;99.90;;;;;;5013883;28;20275;-90
2021/01/26 03:33:47;;;;;;;12.33;3.03;;;4.30;99.90;;;;;;5013774;28;20179;-90
2021/01/26 03:36:14;;;;;;;12.30;3.33;;;4.30;99.90;;;;;;5013756;28;20211;-90
2021/01/26 03:38:42;;;;;;;9.20;3.20;;;4.30;99.90;;;;;;5014157;28;20173;-90
2021/01/26 03:41:08;;;;;;;13.80;2.70;;;4.20;99.90;;;;;;5018698;28;20172;-90
2021/01/26 03:43:34;;;;;;;15.00;3.23;;;4.30;99.90;;;;;;5019699;28;20195;-90
2021/01/26 03:46:34;;;;;;;16.67;3.30;;;4.30;99.90;;;;;;5019087;28;20178;-90
2021/01/26 03:49:26;;;;;;;9.03;3.30;;;4.40;99.90;;;;;;5017530;28;20684;-89
2021/01/26 03:52:01;;;;;;;16.40;3.50;;;4.50;99.90;;;;;;5033922;28;20177;-89
2021/01/26 03:54:37;;;;;;;12.93;3.37;;;4.60;99.90;;;;;;5034584;28;20179;-91
2021/01/26 03:57:26;;;;;;;6.20;3.10;;;4.60;99.90;;;;;;5035366;28;20238;-91
2021/01/26 04:00:07;;;;;;;7.17;2.87;;;4.60;99.90;;;;;;5028639;28;20165;-90
2021/01/26 04:07:49;;;;;;;12.20;3.33;;;4.50;99.90;;;;;;5029178;23;20229;-90
2021/01/26 04:10:23;;;;;;;10.97;2.93;;;4.50;99.90;;;;;;4995262;28;20323;-90
2021/01/26 04:12:55;;;;;;;5.43;3.03;;;4.50;99.90;;;;;;5000969;28;20636;-90
2021/01/26 04:15:43;;;;;;;14.10;3.70;;;4.60;99.90;;;;;;5000895;28;20172;-90
2021/01/26 04:18:12;;;;;;;12.37;2.87;;;4.60;99.90;;;;;;4988214;28;20191;-89
2021/01/26 04:20:39;;;;;;;10.43;3.13;;;4.50;99.90;;;;;;5002072;28;20262;-89
2021/01/26 04:23:05;;;;;;;14.60;3.47;;;4.50;99.90;;;;;;5002413;28;20181;-90
2021/01/26 04:25:41;;;;;;;19.17;3.97;;;4.40;99.90;;;;;;5002234;28;20173;-89
2021/01/26 04:28:12;;;;;;;7.93;3.10;;;4.40;99.90;;;;;;5020071;28;20708;-90
2021/01/26 04:30:38;;;;;;;13.37;3.37;;;4.40;99.90;;;;;;5013592;28;20177;-91
2021/01/26 04:33:07;;;;;;;7.07;3.43;;;4.40;99.90;;;;;;5023474;28;20164;-91
2021/01/26 04:35:33;;;;;;;8.47;2.77;;;4.50;99.90;;;;;;5024111;28;20165;-88
2021/01/26 04:37:59;;;;;;;10.53;3.20;;;4.50;99.90;;;;;;4999779;28;20684;-91
2021/01/26 04:40:26;;;;;;;5.93;2.90;;;4.40;99.90;;;;;;4999054;28;20645;-89
2021/01/26 04:43:11;;;;;;;7.23;3.40;;;4.40;99.90;;;;;;5001050;28;20243;-90
2021/01/26 04:46:03;;;;;;;9.27;2.97;;;4.40;99.90;;;;;;5000954;28;20195;-90
2021/01/26 04:48:37;;;;;;;12.27;2.87;;;4.40;99.90;;;;;;5000134;28;20288;-89
2021/01/26 04:51:16;;;;;;;12.27;3.47;;;4.50;99.90;;;;;;4999831;28;20169;-89
2021/01/26 04:53:45;;;;;;;12.27;3.27;;;4.40;99.90;;;;;;5016428;28;20231;-90
2021/01/26 04:56:17;;;;;;;15.33;3.57;;;4.40;99.90;;;;;;5000023;28;20573;-90
2021/01/26 04:59:08;;;;;;;8.00;3.33;;;4.30;99.90;;;;;;4999979;28;20173;-90
2021/01/26 05:02:05;;;;;;;14.83;3.30;;;4.30;99.90;;;;;;4981180;28;20177;-90
2021/01/26 05:04:40;;;;;;;13.00;3.03;;;4.30;99.90;;;;;;4983430;28;20625;-90
2021/01/26 05:07:15;;;;;;;14.73;3.07;;;4.20;99.90;;;;;;4998384;28;20207;-90
2021/01/26 05:10:02;;;;;;;7.70;3.03;;;4.10;99.90;;;;;;4984558;28;20223;-88
2021/01/26 05:12:32;;;;;;;7.60;3.63;;;3.90;99.90;;;;;;4999580;28;20235;-89
2021/01/26 05:15:01;;;;;;;10.17;2.80;;;3.80;99.90;;;;;;5017369;28;20180;-90
2021/01/26 05:17:51;;;;;;;10.97;3.47;;;3.70;99.90;;;;;;4999903;28;20268;-90
2021/01/26 05:20:27;;;;;;;12.17;2.90;;;3.60;99.90;;;;;;4999982;28;20669;-90
2021/01/26 05:23:12;;;;;;;13.90;2.70;;;3.40;99.90;;;;;;5027529;28;20173;-90
2021/01/26 05:25:38;;;;;;;13.10;3.37;;;3.50;99.90;;;;;;5019840;28;20149;-90
2021/01/26 05:28:03;;;;;;;11.10;3.70;;;3.50;99.90;;;;;;5012947;28;20200;-90
2021/01/26 05:30:34;;;;;;;6.63;2.80;;;3.50;99.90;;;;;;4984264;28;20228;-90
2021/01/26 05:33:05;;;;;;;11.53;2.70;;;3.40;99.90;;;;;;4981129;28;20197;-89
2021/01/26 05:35:33;;;;;;;10.27;3.23;;;3.40;99.90;;;;;;4980589;28;20169;-90
2021/01/26 05:37:59;;;;;;;7.50;2.73;;;3.40;99.90;;;;;;4997266;28;20181;-90
2021/01/26 05:40:26;;;;;;;6.03;2.73;;;3.40;99.90;;;;;;4999386;28;20196;-90
2021/01/26 05:42:57;;;;;;;9.73;2.60;;;3.30;99.90;;;;;;5018903;28;20181;-90
2021/01/26 05:45:34;;;;;;;8.60;2.70;;;3.30;99.90;;;;;;5011023;28;20168;-90
2021/01/26 05:48:10;;;;;;;9.03;2.47;;;3.30;99.90;;;;;;4998922;28;20169;-90
2021/01/26 05:50:38;;;;;;;10.47;2.70;;;3.30;99.90;;;;;;4999211;28;20215;-91
2021/01/26 05:53:22;;;;;;;8.43;2.60;;;3.30;99.90;;;;;;4999133;28;20168;-90
2021/01/26 05:56:00;;;;;;;9.13;2.87;;;3.20;99.90;;;;;;4999731;28;20164;-89
2021/01/26 05:58:28;;;;;;;9.63;3.00;;;3.10;99.90;;;;;;4991823;28;20322;-90
2021/01/26 06:01:00;;;;;;;13.47;3.03;;;3.10;99.90;;;;;;5000996;28;20169;-90
2021/01/26 06:03:26;;;;;;;13.57;2.83;;;3.00;99.90;;;;;;5017875;28;20195;-90
2021/01/26 06:06:08;;;;;;;16.17;3.53;;;2.90;99.90;;;;;;5002327;28;20187;-90
2021/01/26 06:08:48;;;;;;;8.50;3.17;;;2.80;99.90;;;;;;4992347;28;20208;-90
2021/01/26 06:11:20;;;;;;;7.63;3.47;;;2.90;99.90;;;;;;4981301;28;20236;-88
2021/01/26 06:13:46;;;;;;;8.30;2.87;;;2.80;99.90;;;;;;4997061;28;20172;-89
2021/01/26 06:16:19;;;;;;;11.37;2.83;;;2.80;99.90;;;;;;4980036;28;20537;-90
2021/01/26 06:19:01;;;;;;;7.23;3.07;;;2.70;99.90;;;;;;4991828;28;20192;-90
2021/01/26 06:21:29;;;;;;;8.80;2.87;;;2.70;99.90;;;;;;4999756;28;20172;-90
2021/01/26 06:24:00;;;;;;;13.00;3.43;;;2.60;99.90;;;;;;4999677;28;20574;-90
2021/01/26 06:26:38;;;;;;;13.13;3.77;;;2.60;99.90;;;;;;5017234;28;20183;-90
2021/01/26 06:29:29;;;;;;;13.50;3.60;;;2.70;99.90;;;;;;4998637;28;20188;-90
2021/01/26 06:32:32;;;;;;;9.23;3.67;;;2.70;99.90;;;;;;4999792;28;20185;-90
2021/01/26 06:35:21;;;;;;;9.60;3.60;;;2.70;99.90;;;;;;5000362;28;20175;-90
2021/01/26 06:38:25;;;;;;;5.93;3.07;;;2.70;99.90;;;;;;4985492;28;20263;-87
2021/01/26 06:40:56;;;;;;;6.80;3.57;;;2.80;99.90;;;;;;4998274;28;20168;-87
2021/01/26 06:44:04;;;;;;;9.03;3.50;;;2.70;99.90;;;;;;4998434;28;20173;-89
2021/01/26 06:47:00;;;;;;;7.70;3.40;;;2.80;99.90;;;;;;4994427;28;20208;-88
2021/01/26 06:49:48;;;;;;;8.57;4.10;;;2.80;99.90;;;;;;4978455;28;20198;-88
2021/01/26 06:52:35;;;;;;;13.73;4.37;;;2.80;99.90;;;;;;4996408;28;20169;-89
2021/01/26 06:55:18;;;;;;;9.77;3.70;;;2.70;99.90;;;;;;4998694;28;20200;-88
2021/01/26 06:57:50;;;;;;;7.43;3.87;;;2.80;99.90;;;;;;4998223;28;20255;-89
2021/01/26 07:00:30;;;;;;;12.73;3.67;;;2.80;99.90;;;;;;4998255;28;20169;-88
2021/01/26 07:02:59;;;;;;;5.23;3.40;;;2.90;99.90;;;;;;4998203;28;20172;-89
2021/01/26 07:05:36;;;;;;;10.73;4.17;;;2.90;99.90;;;;;;4998301;28;20168;-89
2021/01/26 07:08:24;;;;;;;5.80;3.67;;;2.90;99.90;;;;;;4997458;28;20271;-89
2021/01/26 07:10:58;;;;;;;6.27;3.40;;;3.00;99.90;;;;;;4997839;28;20169;-89
2021/01/26 07:13:23;;;;;;;9.03;3.87;;;2.90;99.90;;;;;;5016255;28;20172;-89
2021/01/26 07:15:49;;;;;;;7.53;3.43;;;2.80;99.90;;;;;;4999814;28;20168;-89
2021/01/26 07:18:33;;;;;;;13.87;3.50;;;2.90;99.90;;;;;;5000471;28;20257;-89
2021/01/26 07:21:41;;;;;;;10.23;3.77;;;2.90;99.90;;;;;;4997419;28;20520;-89
2021/01/26 07:24:55;;;;;;;5.67;3.00;;;3.00;99.90;;;;;;4953578;28;20184;-89
2021/01/26 07:27:57;;;;;;;10.93;3.50;;;3.10;99.90;;;;;;4944542;28;20187;-89
2021/01/26 07:31:01;;;;;;;6.57;3.83;;;3.10;99.90;;;;;;4992703;28;20195;-89
2021/01/26 07:33:42;;;;;;;10.83;3.77;;;3.10;99.90;;;;;;4964959;28;20176;-89
2021/01/26 07:36:16;;;;;;;11.97;4.30;;;3.00;99.90;;;;;;4997102;28;20180;-90
2021/01/26 07:38:51;;;;;;;12.27;4.17;;;3.00;99.90;;;;;;4998174;28;20192;-88
2021/01/26 07:41:32;;;;;;;7.27;3.90;;;3.10;99.90;;;;;;4998669;28;20176;-89
2021/01/26 07:44:21;;;;;;;5.97;3.40;;;3.10;99.90;;;;;;4998015;28;20613;-89
2021/01/26 07:46:57;;;;;;;6.37;3.80;;;3.30;99.90;;;;;;4997617;28;20169;-89
2021/01/26 07:49:55;;;;;;;7.87;3.57;;;3.80;99.90;;;;;;5007246;28;20342;-90
2021/01/26 07:52:22;;;;;;;12.03;3.07;;;4.50;99.90;;;;;;5035392;28;20231;-89
2021/01/26 07:55:07;;;;;;;8.53;3.23;;;4.80;99.90;;;;;;5016170;28;20172;-89
2021/01/26 07:57:51;;;;;;;11.73;3.37;;;4.60;99.90;;;;;;5000336;28;20168;-89
2021/01/26 08:00:21;;;;;;;11.60;3.70;;;4.40;99.90;;;;;;4998387;28;20180;-89
2021/01/26 08:02:54;;;;;;;13.07;3.63;;;4.20;99.90;;;;;;4995498;28;20201;-89
2021/01/26 08:05:36;;;;;;;6.60;3.90;;;4.10;99.90;;;;;;4977447;28;20224;-89
2021/01/26 08:08:04;;;;;;;10.77;3.80;;;4.10;99.90;;;;;;4985485;28;20177;-91
2021/01/26 08:10:30;;;;;;;15.50;4.43;;;4.10;99.90;;;;;;5033053;28;20169;-90
2021/01/26 08:12:56;;;;;;;8.37;3.77;;;4.10;99.90;;;;;;5004835;28;20180;-89
2021/01/26 08:15:30;;;;;;;7.90;4.23;;;4.30;99.90;;;;;;4997232;28;20219;-89
2021/01/26 08:17:57;;;;;;;10.63;4.40;;;4.40;99.90;;;;;;4996939;28;20168;-89
2021/01/26 08:20:33;;;;;;;16.40;5.03;;;4.50;99.90;;;;;;4996839;28;20621;-89
2021/01/26 08:23:03;;;;;;;14.37;5.53;;;4.60;99.90;;;;;;4996668;28;20203;-89
2021/01/26 08:25:32;;;;;;;9.63;3.87;;;4.70;99.90;;;;;;4997098;28;20169;-89
2021/01/26 08:28:01;;;;;;;8.93;4.80;;;4.80;99.90;;;;;;4999618;28;20260;-90
2021/01/26 08:30:35;;;;;;;10.33;3.70;;;4.80;99.90;;;;;;5005901;28;20243;-89
2021/01/26 08:33:11;;;;;;;6.40;3.57;;;4.80;99.90;;;;;;4997984;28;20173;-90
2021/01/26 08:35:41;;;;;;;7.60;4.10;;;5.00;99.90;;;;;;4981022;28;20177;-89
2021/01/26 08:38:07;;;;;;;13.17;4.10;;;5.20;99.90;;;;;;5003681;28;20196;-89
2021/01/26 08:40:33;;;;;;;24.60;4.57;;;5.50;99.90;;;;;;5001084;28;20196;-89
2021/01/26 08:43:06;;;;;;;12.20;4.53;;;5.80;99.90;;;;;;5017655;28;20192;-89
2021/01/26 08:45:33;;;;;;;14.57;6.07;;;6.20;99.90;;;;;;5000516;28;20177;-89
2021/01/26 08:48:01;;;;;;;18.17;7.80;;;6.40;99.90;;;;;;4995634;28;20204;-89
2021/01/26 08:50:39;;;;;;;7.50;4.20;;;7.00;99.90;;;;;;4980631;28;20178;-90
2021/01/26 08:53:26;;;;;;;15.07;3.67;;;8.60;99.90;;;;;;4980166;28;20169;-83
2021/01/26 08:55:53;;;;;;;6.97;3.70;;;9.80;99.90;;;;;;4980562;28;20320;-87
2021/01/26 08:58:55;;;;;;;17.70;3.50;;;10.20;99.90;;;;;;4995344;28;20200;-90
2021/01/26 09:01:25;;;;;;;10.07;3.43;;;10.50;99.90;;;;;;5001221;28;20214;-89
2021/01/26 09:04:12;;;;;;;11.73;3.30;;;11.00;99.90;;;;;;5000331;28;20180;-89
2021/01/26 09:06:38;;;;;;;8.43;3.47;;;11.10;99.90;;;;;;5000703;28;20196;-90
2021/01/26 09:09:09;;;;;;;5.10;3.08;;;11.50;99.90;;;;;;4999909;28;20200;-90
2021/01/26 09:11:40;;;;;;;7.57;3.13;;;11.70;99.90;;;;;;5000167;28;20173;-90
2021/01/26 09:14:19;;;;;;;6.80;2.47;;;12.00;99.90;;;;;;5002699;28;20583;-92
2021/01/26 09:16:46;;;;;;;9.70;2.88;;;12.00;99.90;;;;;;4999970;28;20177;-91
2021/01/26 09:19:18;;;;;;;5.95;2.60;;;12.90;99.90;;;;;;4999150;28;20176;-90
2021/01/26 09:21:44;;;;;;;6.35;2.90;;;13.50;99.90;;;;;;5000570;28;20184;-91
2021/01/26 09:24:12;;;;;;;8.65;3.35;;;13.10;99.90;;;;;;4985293;28;20618;-78
2021/01/26 09:26:38;;;;;;;6.50;2.78;;;12.70;99.90;;;;;;4989721;28;20264;-91
2021/01/26 09:29:04;;;;;;;4.82;3.00;;;13.50;99.90;;;;;;4984205;28;20264;-93
2021/01/26 09:31:30;;;;;;;7.22;2.65;;;14.70;99.90;;;;;;4982527;28;20181;-90
2021/01/26 09:34:08;;;;;;;5.32;2.58;;;15.60;99.90;;;;;;4994802;28;20169;-92
2021/01/26 09:36:37;;;;;;;3.80;2.72;;;14.50;99.90;;;;;;4995164;28;20648;-93
2021/01/26 09:39:11;;;;;;;6.00;2.78;;;12.80;99.90;;;;;;5000759;28;20177;-93
2021/01/26 09:41:40;;;;;;;6.07;2.85;;;11.60;99.90;;;;;;5014132;28;20160;-91
2021/01/26 09:44:12;;;;;;;6.40;3.08;;;10.50;99.90;;;;;;5008709;28;20172;-92
2021/01/26 09:46:39;;;;;;;9.18;2.88;;;9.80;99.90;;;;;;4999895;28;20497;-92
2021/01/26 09:49:16;;;;;;;6.13;2.58;;;9.70;99.90;;;;;;5000759;28;20260;-92
2021/01/26 09:51:51;;;;;;;10.80;3.22;;;9.80;99.90;;;;;;5004878;28;20183;-92
2021/01/26 09:54:25;;;;;;;6.97;2.72;;;9.80;99.90;;;;;;4999912;28;20497;-91
2021/01/26 09:56:52;;;;;;;4.78;2.63;;;10.20;99.90;;;;;;4997665;28;20227;-92
2021/01/26 09:59:21;;;;;;;4.93;2.70;;;9.60;99.90;;;;;;5001228;28;20173;-92
2021/01/26 10:01:49;;;;;;;7.07;3.13;;;8.90;99.90;;;;;;4988896;28;20204;-92
2021/01/26 10:04:17;;;;;;;7.80;3.35;;;9.50;99.90;;;;;;5004689;28;20668;-91
2021/01/26 10:06:44;;;;;;;22.90;4.78;;;12.20;99.90;;;;;;5003080;28;20660;-92
2021/01/26 10:09:33;;;;;;;6.60;3.05;;;14.70;99.90;;;;;;5004090;28;20196;-92
2021/01/26 10:12:18;;;;;;;8.77;3.35;;;16.70;99.90;;;;;;5005550;28;20176;-92
2021/01/26 10:15:08;;;;;;;4.60;2.70;;;17.70;99.90;;;;;;5022997;28;20188;-92
2021/01/26 10:18:03;;;;;;;8.35;2.60;;;17.20;99.90;;;;;;5035601;28;20172;-91
2021/01/26 10:20:53;;;;;;;5.40;2.97;;;15.30;99.90;;;;;;5018748;28;20177;-92
2021/01/26 10:23:30;;;;;;;6.57;3.17;;;13.50;99.90;;;;;;5005164;28;20605;-92
2021/01/26 10:26:22;;;;;;;4.95;3.17;;;13.10;99.90;;;;;;4999131;28;20164;-90
2021/01/26 10:29:07;;;;;;;12.00;3.15;;;13.50;99.90;;;;;;5000597;28;20189;-91
2021/01/26 10:31:55;;;;;;;5.68;3.15;;;12.60;99.90;;;;;;5002421;28;20177;-91
2021/01/26 10:34:35;;;;;;;13.38;3.10;;;12.10;99.90;;;;;;5007354;28;20160;-91
2021/01/26 10:37:22;;;;;;;9.50;3.35;;;12.90;99.90;;;;;;5014183;28;20204;-92
2021/01/26 10:40:03;;;;;;;8.27;3.65;;;13.00;99.90;;;;;;4991971;28;20169;-91
2021/01/26 10:42:29;;;;;;;7.60;3.05;;;13.00;99.90;;;;;;4988830;28;20169;-90
2021/01/26 10:44:58;;;;;;;5.35;3.03;;;12.20;99.90;;;;;;4980970;28;20538;-89
2021/01/26 10:47:28;;;;;;;5.50;3.53;;;11.80;99.90;;;;;;4980854;28;20618;-89
2021/01/26 10:50:00;;;;;;;11.88;3.58;;;11.50;99.90;;;;;;4996871;28;20256;-89
2021/01/26 10:52:46;;;;;;;7.63;3.20;;;11.40;99.90;;;;;;4978935;28;20176;-89
2021/01/26 10:55:18;;;;;;;7.45;3.22;;;11.80;99.90;;;;;;4980887;28;20173;-89
2021/01/26 10:57:45;;;;;;;7.18;3.00;;;13.30;99.90;;;;;;4980341;28;20173;-89
2021/01/26 11:00:22;;;;;;;9.75;3.40;;;14.00;99.90;;;;;;4978504;28;20592;-89
2021/01/26 11:02:51;;;;;;;4.45;3.22;;;15.00;99.90;;;;;;4978891;28;20172;-90
2021/01/26 11:05:17;;;;;;;6.32;3.17;;;16.60;99.90;;;;;;4968561;28;20288;-90
2021/01/26 11:07:46;;;;;;;4.95;3.20;;;17.90;99.90;;;;;;4998392;28;20203;-90
2021/01/26 11:10:12;;;;;;;7.05;3.67;;;18.20;99.90;;;;;;4998669;28;20283;-88
2021/01/26 11:12:39;;;;;;;8.20;2.78;;;18.40;99.90;;;;;;4999284;28;20189;-91
2021/01/26 11:15:15;;;;;;;8.07;3.70;;;18.30;99.90;;;;;;5000182;28;20264;-90
2021/01/26 11:17:41;;;;;;;10.80;3.60;;;17.40;99.90;;;;;;4999240;28;20192;-91
2021/01/26 11:20:08;;;;;;;7.63;3.72;;;16.70;99.90;;;;;;4998777;28;20614;-90
2021/01/26 11:22:34;;;;;;;5.50;3.13;;;17.00;99.90;;;;;;4998821;28;20169;-90
2021/01/26 11:25:02;;;;;;;10.82;3.40;;;17.60;99.90;;;;;;4982222;28;20173;-90
2021/01/26 11:27:28;;;;;;;7.10;3.10;;;18.20;99.90;;;;;;4978529;28;20264;-90
2021/01/26 11:29:54;;;;;;;7.75;3.10;;;19.00;99.90;;;;;;4983480;28;20238;-90
2021/01/26 11:32:20;;;;;;;14.68;3.72;;;18.60;99.90;;;;;;4998741;28;20176;-90
2021/01/26 11:34:46;;;;;;;10.65;3.83;;;17.50;99.90;;;;;;4981445;28;20264;-91
2021/01/26 11:37:12;;;;;;;8.85;3.75;;;17.00;99.90;;;;;;4998191;28;20180;-89
2021/01/26 11:39:41;;;;;;;8.63;4.07;;;16.30;99.90;;;;;;4997779;28;20262;-90
2021/01/26 11:42:08;;;;;;;14.10;3.67;;;15.90;99.90;;;;;;5000859;28;20177;-91
2021/01/26 11:44:35;;;;;;;10.77;3.97;;;15.40;99.90;;;;;;4970168;28;20228;-90
2021/01/26 11:47:01;;;;;;;15.82;3.40;;;15.40;99.90;;;;;;4996286;28;20174;-88
2021/01/26 11:49:26;;;;;;;8.25;4.15;;;15.50;99.90;;;;;;4978836;28;20220;-91
2021/01/26 11:51:52;;;;;;;6.40;4.25;;;15.70;99.90;;;;;;4982039;28;20219;-90
2021/01/26 11:54:18;;;;;;;9.90;3.60;;;16.40;99.90;;;;;;4982227;28;20264;-90
2021/01/26 11:56:43;;;;;;;10.60;3.78;;;16.40;99.90;;;;;;4998034;28;20646;-89
2021/01/26 11:59:09;;;;;;;10.57;4.05;;;16.00;99.90;;;;;;5000290;28;20238;-89
2021/01/26 12:01:35;;;;;;;6.63;4.25;;;15.70;99.90;;;;;;4998172;28;20169;-89
2021/01/26 12:04:00;;;;;;;9.18;4.78;;;15.40;99.90;;;;;;5019719;28;20247;-93
2021/01/26 12:06:26;;;;;;;7.53;4.03;;;14.90;99.90;;;;;;5002334;28;20254;-89
2021/01/26 12:08:52;;;;;;;11.52;3.97;;;15.10;99.90;;;;;;5001697;28;20244;-89
2021/01/26 12:11:17;;;;;;;8.65;4.00;;;15.60;99.90;;;;;;5001573;28;20173;-90
2021/01/26 12:13:45;;;;;;;6.13;4.25;;;15.90;99.90;;;;;;5001770;28;20306;-90
2021/01/26 12:16:10;;;;;;;7.95;4.35;;;15.90;99.90;;;;;;5001442;28;20256;-90
2021/01/26 12:18:36;;;;;;;7.80;4.22;;;16.50;99.90;;;;;;5001258;28;20605;-90
2021/01/26 12:21:02;;;;;;;10.98;4.25;;;16.70;99.90;;;;;;5001050;28;20196;-90
2021/01/26 12:23:28;;;;;;;10.50;3.47;;;16.30;99.90;;;;;;5003080;28;20176;-91
2021/01/26 12:30:55;;;;;;;7.70;4.00;;;15.50;99.90;;;;;;5337964;23;20234;-91
2021/01/26 12:33:21;;;;;;;7.18;3.97;;;14.00;99.90;;;;;;5017729;28;20176;-89
2021/01/26 12:35:46;;;;;;;11.15;4.22;;;13.10;99.90;;;;;;5000010;28;20176;-91
2021/01/26 12:38:13;;;;;;;9.98;3.53;;;12.90;99.90;;;;;;5017845;28;20219;-90
2021/01/26 12:40:41;;;;;;;5.22;2.97;;;12.40;99.90;;;;;;4985271;28;20610;-89
2021/01/26 12:43:07;;;;;;;8.73;3.17;;;12.00;99.90;;;;;;4989753;28;20174;-89
2021/01/26 12:45:33;;;;;;;12.38;3.58;;;12.10;99.90;;;;;;4984137;28;20173;-90
2021/01/26 12:48:00;;;;;;;5.25;4.15;;;12.70;99.90;;;;;;4986008;28;20167;-90
2021/01/26 12:50:29;;;;;;;6.88;3.25;;;13.40;99.90;;;;;;4985429;28;20188;-89
2021/01/26 12:52:55;;;;;;;7.90;3.20;;;13.50;99.90;;;;;;5001268;28;20161;-90
2021/01/26 12:55:21;;;;;;;6.95;3.60;;;13.40;99.90;;;;;;4968536;28;20192;-90
2021/01/26 12:57:47;;;;;;;7.60;3.55;;;12.50;99.90;;;;;;4966880;28;20169;-90
2021/01/26 13:00:17;;;;;;;4.90;3.00;;;12.10;99.90;;;;;;4982911;28;20173;-90
2021/01/26 13:02:43;;;;;;;8.13;3.35;;;12.00;99.90;;;;;;5015234;28;20168;-90
2021/01/26 13:05:11;;;;;;;5.28;3.45;;;12.70;99.90;;;;;;4985968;28;20173;-89
2021/01/26 13:07:36;;;;;;;9.55;4.03;;;13.30;99.90;;;;;;5001762;28;20196;-89
2021/01/26 13:10:03;;;;;;;5.35;3.90;;;13.20;99.90;;;;;;5024606;28;20196;-90
2021/01/26 13:12:29;;;;;;;5.30;3.13;;;13.20;99.90;;;;;;5019941;28;20175;-90
2021/01/26 13:14:55;;;;;;;6.38;3.47;;;13.30;99.90;;;;;;5039144;28;20165;-90
2021/01/26 13:17:20;;;;;;;4.90;3.28;;;13.20;99.90;;;;;;5010655;28;20176;-90
2021/01/26 13:19:46;;;;;;;6.70;3.45;;;12.40;99.90;;;;;;5018438;28;20535;-90
2021/01/26 13:22:12;;;;;;;9.45;3.65;;;12.20;99.90;;;;;;5001123;28;20179;-89
2021/01/26 13:24:37;;;;;;;13.63;3.30;;;12.10;99.90;;;;;;5001023;28;20196;-90
2021/01/26 13:27:03;;;;;;;6.55;3.40;;;11.90;99.90;;;;;;5000739;28;20169;-90
2021/01/26 13:29:31;;;;;;;6.50;3.85;;;11.60;99.90;;;;;;5015041;28;20192;-91